Time;durP1;ratioP1;P1;durP2;ratioP2;P2;SDS_P1;SDS_P2;PMS_P1;PMS_P2;Temp;Humidity;BMP_temperature;BMP_pressure;BME280_temperature;BME280_humidity;BME280_pressure;Samples;Min_cycle;Max_cycle;Signal;HPM_P1;HPM_P2
2023/05/14 00:01:03;;;;;;;;;;;;;;;12.59;78.78;102582.66;5099117;28;19912;-68
2023/05/14 00:03:28;;;;;;;;;;;;;;;12.62;78.58;102593.09;5098854;28;19916;-67
2023/05/14 00:05:53;;;;;;;;;;;;;;;12.63;78.59;102584.09;5098745;28;19912;-66
2023/05/14 00:08:19;;;;;;;;;;;;;;;12.66;75.73;102589.16;5080559;28;19927;-69
2023/05/14 00:10:44;;;;;;;;;;;;;;;12.70;74.80;102593.28;5098409;28;20355;-69
2023/05/14 00:13:10;;;;;;;;;;;;;;;12.73;74.20;102594.00;5080755;28;19963;-67
2023/05/14 00:15:35;;;;;;;;;;;;;;;12.74;73.57;102595.72;5098698;28;20286;-67
2023/05/14 00:18:00;;;;;;;;;;;;;;;12.76;72.80;102599.09;5095909;28;19916;-67
2023/05/14 00:20:26;;;;;;;;;;;;;;;12.77;72.60;102596.28;5095388;28;19998;-68
2023/05/14 00:22:51;;;;;;;;;;;;;;;12.77;72.40;102587.41;5095348;28;19955;-67
2023/05/14 00:25:16;;;;;;;;;;;;;;;12.78;71.94;102589.13;5077061;28;20245;-68
2023/05/14 00:27:42;;;;;;;;;;;;;;;12.77;71.90;102584.75;5095411;28;20279;-68
2023/05/14 00:30:07;;;;;;;;;;;;;;;12.76;71.82;102583.91;5095451;28;20260;-67
2023/05/14 00:32:33;;;;;;;;;;;;;;;12.75;71.92;102587.56;5095179;28;20398;-68
2023/05/14 00:34:58;;;;;;;;;;;;;;;12.74;71.27;102588.53;5095034;28;19923;-68
2023/05/14 00:37:23;;;;;;;;;;;;;;;12.74;70.00;102590.34;5094984;28;20363;-68
2023/05/14 00:39:49;;;;;;;;;;;;;;;12.72;69.12;102595.81;5095442;28;19916;-69
2023/05/14 00:42:14;;;;;;;;;;;;;;;12.70;68.04;102595.94;5095027;28;19919;-68
2023/05/14 00:44:39;;;;;;;;;;;;;;;12.68;66.51;102597.06;5094860;28;20016;-67
2023/05/14 00:47:06;;;;;;;;;;;;;;;12.64;66.23;102596.47;5095142;28;20319;-68
2023/05/14 00:49:31;;;;;;;;;;;;;;;12.63;65.56;102589.44;5094440;28;19916;-69
2023/05/14 00:51:59;;;;;;;;;;;;;;;12.64;66.37;102593.81;5094903;28;19923;-68
2023/05/14 00:54:24;;;;;;;;;;;;;;;12.66;66.45;102599.84;5094648;28;20394;-67
2023/05/14 00:56:50;;;;;;;;;;;;;;;12.68;66.41;102597.06;5094828;28;19912;-70
2023/05/14 00:59:15;;;;;;;;;;;;;;;12.66;66.06;102599.00;5094917;28;19919;-67
2023/05/14 01:01:41;;;;;;;;;;;;;;;12.67;66.49;102601.56;5094760;28;20279;-69
2023/05/14 01:04:07;;;;;;;;;;;;;;;12.64;65.95;102607.16;5094483;28;19912;-67
2023/05/14 01:06:51;;;;;;;;;;;;;;;12.63;66.59;102600.13;5094548;28;19912;-67
2023/05/14 01:09:16;;;;;;;;;;;;;;;12.61;66.42;102599.41;5094568;28;19919;-70
2023/05/14 01:11:55;;;;;;;;;;;;;;;12.62;66.69;102605.59;5094729;28;19912;-66
2023/05/14 01:14:23;;;;;;;;;;;;;;;12.59;66.91;102593.34;5094185;28;19912;-68
2023/05/14 01:16:51;;;;;;;;;;;;;;;12.59;66.82;102593.34;5094468;28;19974;-68
2023/05/14 01:19:41;;;;;;;;;;;;;;;12.59;67.00;102593.34;5094085;28;19962;-68
2023/05/14 01:22:06;;;;;;;;;;;;;;;12.57;67.04;102589.97;5083328;28;19912;-68
2023/05/14 01:24:32;;;;;;;;;;;;;;;12.55;67.00;102591.94;5094276;28;19935;-68
2023/05/14 01:27:05;;;;;;;;;;;;;;;12.52;67.16;102594.88;5094158;28;20057;-69
2023/05/14 01:29:32;;;;;;;;;;;;;;;12.49;67.31;102589.78;5093734;28;19999;-68
2023/05/14 01:31:59;;;;;;;;;;;;;;;12.48;67.20;102587.25;5093974;28;20356;-69
2023/05/14 01:34:27;;;;;;;;;;;;;;;12.48;67.56;102596.09;5094312;28;19912;-67
2023/05/14 01:36:53;;;;;;;;;;;;;;;12.47;68.05;102589.06;5094141;28;19966;-68
2023/05/14 01:39:18;;;;;;;;;;;;;;;12.47;67.88;102586.41;5094162;28;19912;-70
2023/05/14 01:41:45;;;;;;;;;;;;;;;12.47;68.43;102581.06;5075712;28;19934;-70
2023/05/14 01:44:10;;;;;;;;;;;;;;;12.48;68.04;102585.41;5093745;28;19912;-69
2023/05/14 01:46:36;;;;;;;;;;;;;;;12.50;67.99;102583.47;5093597;28;19912;-68
2023/05/14 01:49:05;;;;;;;;;;;;;;;12.50;68.25;102578.13;5093726;28;20360;-68
2023/05/14 01:51:32;;;;;;;;;;;;;;;12.53;67.68;102583.19;5093553;28;20108;-67
2023/05/14 01:53:57;;;;;;;;;;;;;;;12.53;68.92;102575.19;5093648;28;20020;-68
2023/05/14 01:56:23;;;;;;;;;;;;;;;12.48;67.84;102576.56;5093635;28;19912;-68
2023/05/14 01:58:48;;;;;;;;;;;;;;;12.46;67.83;102576.69;5093477;28;19916;-66
2023/05/14 02:01:14;;;;;;;;;;;;;;;12.47;67.91;102583.72;5093308;28;20240;-66
2023/05/14 02:03:39;;;;;;;;;;;;;;;12.49;68.10;102588.94;5093592;28;19965;-69
2023/05/14 02:06:04;;;;;;;;;;;;;;;12.51;68.12;102586.97;5093491;28;19912;-67
2023/05/14 02:08:30;;;;;;;;;;;;;;;12.51;67.89;102581.63;5093291;28;19978;-66
2023/05/14 02:10:55;;;;;;;;;;;;;;;12.53;68.02;102583.19;5093289;28;20355;-69
2023/05/14 02:13:20;;;;;;;;;;;;;;;12.57;67.52;102589.97;5093122;28;19913;-67
2023/05/14 02:15:46;;;;;;;;;;;;;;;12.60;67.44;102595.03;5093014;28;20450;-67
2023/05/14 02:18:11;;;;;;;;;;;;;;;12.64;67.36;102592.94;5075155;28;19912;-68
2023/05/14 02:20:37;;;;;;;;;;;;;;;12.68;67.33;102594.38;5093018;28;19947;-67
2023/05/14 02:23:02;;;;;;;;;;;;;;;12.69;67.66;102594.25;5093109;28;19912;-68
2023/05/14 02:25:28;;;;;;;;;;;;;;;12.73;67.55;102596.69;5093032;28;20370;-67
2023/05/14 02:27:53;;;;;;;;;;;;;;;12.76;67.68;102593.75;5093029;28;19912;-66
2023/05/14 02:30:20;;;;;;;;;;;;;;;12.79;67.58;102594.31;5092787;28;19923;-68
2023/05/14 02:32:45;;;;;;;;;;;;;;;12.76;68.37;102599.94;5074873;28;20327;-68
2023/05/14 02:35:11;;;;;;;;;;;;;;;12.74;68.18;102593.88;5093025;28;19954;-67
2023/05/14 02:37:36;;;;;;;;;;;;;;;12.78;67.64;102586.44;5093052;28;19912;-68
2023/05/14 02:40:02;;;;;;;;;;;;;;;12.84;67.92;102592.09;5092701;28;20014;-68
2023/05/14 02:42:29;;;;;;;;;;;;;;;12.89;67.77;102581.00;5092148;28;20016;-67
2023/05/14 02:44:54;;;;;;;;;;;;;;;12.86;68.04;102587.47;5092573;28;20406;-69
2023/05/14 02:47:19;;;;;;;;;;;;;;;12.80;68.22;102590.66;5092910;28;19958;-67
2023/05/14 02:49:46;;;;;;;;;;;;;;;12.78;68.26;102586.44;5092780;28;19916;-69
2023/05/14 02:52:13;;;;;;;;;;;;;;;12.79;68.19;102590.81;5092534;28;19916;-67
2023/05/14 02:54:39;;;;;;;;;;;;;;;12.85;67.63;102582.25;5092832;28;20244;-67
2023/05/14 02:57:04;;;;;;;;;;;;;;;12.90;67.58;102582.69;5092750;28;19912;-67
2023/05/14 02:59:30;;;;;;;;;;;;;;;13.00;67.44;102586.25;5092544;28;19912;-68
2023/05/14 03:01:55;;;;;;;;;;;;;;;13.07;68.20;102583.91;5092555;28;20010;-67
2023/05/14 03:04:21;;;;;;;;;;;;;;;13.07;68.11;102589.25;5092505;28;19919;-68
2023/05/14 03:06:46;;;;;;;;;;;;;;;13.06;67.64;102580.38;5092720;28;19912;-67
2023/05/14 03:09:11;;;;;;;;;;;;;;;13.11;67.64;102578.16;5092704;28;19919;-68
2023/05/14 03:11:37;;;;;;;;;;;;;;;13.23;67.21;102586.94;5092636;28;19919;-68
2023/05/14 03:14:02;;;;;;;;;;;;;;;13.33;67.22;102572.63;5092491;28;20310;-69
2023/05/14 03:16:27;;;;;;;;;;;;;;;13.45;66.95;102575.19;5092630;28;20010;-67
2023/05/14 03:18:53;;;;;;;;;;;;;;;13.53;66.42;102575.31;5092687;28;19919;-66
2023/05/14 03:21:19;;;;;;;;;;;;;;;13.63;65.94;102578.91;5092591;28;20286;-68
2023/05/14 03:23:44;;;;;;;;;;;;;;;13.74;65.64;102586.78;5092640;28;19912;-68
2023/05/14 03:26:10;;;;;;;;;;;;;;;13.83;65.77;102577.06;5092459;28;20567;-68
2023/05/14 03:28:35;;;;;;;;;;;;;;;14.23;64.61;102582.31;5092439;28;20018;-68
2023/05/14 03:31:00;;;;;;;;;;;;;;;14.58;62.06;102576.34;5092452;28;20306;-69
2023/05/14 03:33:26;;;;;;;;;;;;;;;14.77;60.69;102572.78;5074307;28;19927;-67
2023/05/14 03:35:51;;;;;;;;;;;;;;;15.01;60.23;102573.09;5092559;28;19912;-67
2023/05/14 03:38:16;;;;;;;;;;;;;;;15.01;60.26;102582.97;5092542;28;20552;-68
2023/05/14 03:40:43;;;;;;;;;;;;;;;14.88;60.88;102578.81;5092939;28;20335;-67
2023/05/14 03:43:08;;;;;;;;;;;;;;;14.78;61.22;102577.16;5092580;28;19920;-66
2023/05/14 03:45:34;;;;;;;;;;;;;;;14.75;61.27;102566.72;5092067;28;19912;-68
2023/05/14 03:48:00;;;;;;;;;;;;;;;14.96;60.10;102569.16;5092044;28;19916;-69
2023/05/14 03:50:26;;;;;;;;;;;;;;;14.91;60.49;102576.81;5092289;28;19967;-68
2023/05/14 03:52:51;;;;;;;;;;;;;;;14.88;61.09;102578.81;5075695;28;20370;-69
2023/05/14 03:55:20;;;;;;;;;;;;;;;14.85;60.75;102579.09;5096068;28;19973;-69
2023/05/14 03:57:46;;;;;;;;;;;;;;;14.78;60.67;102588.72;5095722;28;19912;-68
2023/05/14 04:00:12;;;;;;;;;;;;;;;14.72;60.01;102588.44;5095903;28;19919;-69
2023/05/14 04:02:37;;;;;;;;;;;;;;;14.66;60.32;102583.66;5095616;28;20015;-67
2023/05/14 04:05:03;;;;;;;;;;;;;;;14.62;60.41;102576.91;5095686;28;19923;-68
2023/05/14 04:07:28;;;;;;;;;;;;;;;14.54;59.98;102581.16;5095767;28;19923;-67
2023/05/14 04:09:54;;;;;;;;;;;;;;;14.51;60.31;102576.09;5095372;28;19918;-70
2023/05/14 04:12:19;;;;;;;;;;;;;;;14.63;60.61;102574.06;5095359;28;20007;-69
2023/05/14 04:14:44;;;;;;;;;;;;;;;14.81;60.35;102571.50;5095665;28;20347;-69
2023/05/14 04:17:10;;;;;;;;;;;;;;;14.98;60.25;102580.59;5095494;28;19988;-67
2023/05/14 04:19:35;;;;;;;;;;;;;;;15.15;59.90;102575.31;5095522;28;19912;-68
2023/05/14 04:22:04;;;;;;;;;;;;;;;15.38;59.51;102581.13;5095505;28;19923;-67
2023/05/14 04:24:29;;;;;;;;;;;;;;;15.64;57.50;102581.28;5095291;28;19916;-68
2023/05/14 04:26:54;;;;;;;;;;;;;;;15.82;55.72;102580.44;5095178;28;19919;-69
2023/05/14 04:29:19;;;;;;;;;;;;;;;15.80;54.04;102575.22;5095421;28;19913;-68
2023/05/14 04:31:45;;;;;;;;;;;;;;;15.90;54.35;102580.50;5095108;28;19913;-68
2023/05/14 04:34:10;;;;;;;;;;;;;;;16.54;52.43;102579.38;5095017;28;19912;-70
2023/05/14 04:36:36;;;;;;;;;;;;;;;16.75;51.37;102576.34;5095156;28;19912;-68
2023/05/14 04:39:01;;;;;;;;;;;;;;;17.05;52.03;102573.13;5095047;28;20276;-70
2023/05/14 04:41:26;;;;;;;;;;;;;;;18.66;46.71;102576.28;5095428;28;19912;-66
2023/05/14 04:43:54;;;;;;;;;;;;;;;19.84;42.77;102570.91;5094786;28;19912;-68
2023/05/14 04:46:19;;;;;;;;;;;;;;;19.75;42.80;102573.66;5095219;28;19916;-67
2023/05/14 04:48:47;;;;;;;;;;;;;;;19.53;42.73;102563.66;5094963;28;19962;-67
2023/05/14 04:51:12;;;;;;;;;;;;;;;18.91;43.69;102584.34;5094652;28;20264;-68
2023/05/14 04:53:37;;;;;;;;;;;;;;;17.89;46.33;102574.94;5094745;28;19937;-67
2023/05/14 04:56:03;;;;;;;;;;;;;;;17.09;48.42;102569.16;5094682;28;20010;-67
2023/05/14 04:58:30;;;;;;;;;;;;;;;16.55;49.87;102570.31;5095018;28;20378;-69
2023/05/14 05:00:55;;;;;;;;;;;;;;;16.16;51.63;102570.66;5096050;28;20379;-69
2023/05/14 05:03:20;;;;;;;;;;;;;;;15.87;52.28;102570.91;5098079;28;19912;-67
2023/05/14 05:05:46;;;;;;;;;;;;;;;15.65;53.04;102566.84;5080054;28;19912;-67
2023/05/14 05:08:11;;;;;;;;;;;;;;;15.45;53.85;102563.41;5078960;28;19912;-66
2023/05/14 05:10:37;;;;;;;;;;;;;;;15.40;54.16;102567.56;5095029;28;19916;-67
2023/05/14 05:13:02;;;;;;;;;;;;;;;15.38;54.32;102562.34;5092839;28;19967;-69
2023/05/14 05:15:28;;;;;;;;;;;;;;;15.43;54.47;102567.25;5092698;28;19966;-68
2023/05/14 05:17:53;;;;;;;;;;;;;;;15.48;54.75;102567.63;5092807;28;19916;-68
2023/05/14 05:20:18;;;;;;;;;;;;;;;15.62;54.82;102571.69;5092866;28;19916;-69
2023/05/14 05:22:44;;;;;;;;;;;;;;;15.78;54.44;102572.69;5092581;28;19916;-69
2023/05/14 05:25:11;;;;;;;;;;;;;;;15.95;54.87;102568.34;5092653;28;19912;-68
2023/05/14 05:27:37;;;;;;;;;;;;;;;16.12;54.29;102569.28;5092749;28;19919;-68
2023/05/14 05:30:03;;;;;;;;;;;;;;;16.29;53.87;102568.44;5076233;28;19912;-69
2023/05/14 05:32:30;;;;;;;;;;;;;;;16.39;52.46;102574.56;5094058;28;19912;-67
2023/05/14 05:34:55;;;;;;;;;;;;;;;16.51;52.91;102575.16;5093912;28;20269;-70
2023/05/14 05:37:21;;;;;;;;;;;;;;;16.53;52.24;102572.31;5094390;28;19912;-66
2023/05/14 05:39:47;;;;;;;;;;;;;;;16.45;52.50;102574.94;5093899;28;20020;-70
2023/05/14 05:42:12;;;;;;;;;;;;;;;16.43;52.75;102575.94;5093460;28;20389;-67
2023/05/14 05:44:37;;;;;;;;;;;;;;;16.42;51.57;102576.94;5094040;28;19955;-69
2023/05/14 05:47:06;;;;;;;;;;;;;;;16.31;50.81;102573.66;5094633;28;19946;-73
2023/05/14 05:49:31;;;;;;;;;;;;;;;16.14;50.93;102572.66;5094675;28;20014;-71
2023/05/14 05:51:57;;;;;;;;;;;;;;;16.03;51.38;102571.09;5095424;28;19963;-71
2023/05/14 05:54:23;;;;;;;;;;;;;;;16.06;51.85;102580.69;5093724;28;20275;-70
2023/05/14 05:56:48;;;;;;;;;;;;;;;16.17;51.83;102583.13;5093732;28;19912;-71
2023/05/14 05:59:13;;;;;;;;;;;;;;;16.29;51.98;102587.25;5093773;28;19958;-72
2023/05/14 06:01:40;;;;;;;;;;;;;;;16.35;51.46;102583.09;5093555;28;19915;-69
2023/05/14 06:04:05;;;;;;;;;;;;;;;16.32;51.22;102578.88;5093455;28;20015;-71
2023/05/14 06:06:31;;;;;;;;;;;;;;;16.32;51.66;102584.25;5093344;28;19952;-70
2023/05/14 06:08:57;;;;;;;;;;;;;;;16.37;51.84;102573.88;5093315;28;19912;-75
2023/05/14 06:11:22;;;;;;;;;;;;;;;16.44;52.30;102571.41;5091785;28;20548;-67
2023/05/14 06:13:47;;;;;;;;;;;;;;;16.45;52.55;102570.41;5093259;28;19919;-66
2023/05/14 06:16:13;;;;;;;;;;;;;;;16.46;52.51;102571.25;5092003;28;20014;-67
2023/05/14 06:18:38;;;;;;;;;;;;;;;16.43;51.45;102572.41;5093072;28;20001;-67
2023/05/14 06:21:03;;;;;;;;;;;;;;;16.33;51.76;102572.50;5093108;28;19919;-68
2023/05/14 06:23:29;;;;;;;;;;;;;;;16.34;52.24;102571.50;5092945;28;19956;-69
2023/05/14 06:25:54;;;;;;;;;;;;;;;16.40;52.10;102573.56;5092821;28;19912;-67
2023/05/14 06:28:19;;;;;;;;;;;;;;;16.47;52.17;102564.84;5074819;28;20233;-67
2023/05/14 06:30:45;;;;;;;;;;;;;;;16.64;51.97;102567.50;5093115;28;19912;-71
2023/05/14 06:33:12;;;;;;;;;;;;;;;16.91;50.66;102566.53;5093208;28;19912;-67
2023/05/14 06:35:37;;;;;;;;;;;;;;;17.26;50.31;102572.72;5093528;28;19912;-67
2023/05/14 06:38:03;;;;;;;;;;;;;;;17.40;48.88;102576.66;5097952;28;19975;-70
2023/05/14 06:40:28;;;;;;;;;;;;;;;17.38;49.53;102571.44;5097784;28;19912;-69
2023/05/14 06:42:53;;;;;;;;;;;;;;;17.33;49.40;102573.75;5095507;28;19946;-75
2023/05/14 06:45:19;;;;;;;;;;;;;;;17.23;49.03;102573.06;5076731;28;19915;-75
2023/05/14 06:47:44;;;;;;;;;;;;;;;17.15;49.76;102573.03;5094983;28;19912;-75
2023/05/14 06:50:11;;;;;;;;;;;;;;;17.13;49.85;102572.34;5093369;28;20464;-71
2023/05/14 06:52:37;;;;;;;;;;;;;;;17.24;50.20;102574.75;5108219;28;20271;-68
2023/05/14 06:55:02;;;;;;;;;;;;;;;17.34;49.83;102578.13;5095172;28;19912;-71
2023/05/14 06:57:27;;;;;;;;;;;;;;;17.40;49.61;102577.50;5113859;28;19918;-71
2023/05/14 06:59:53;;;;;;;;;;;;;;;17.41;49.05;102583.75;5110476;28;19919;-72
2023/05/14 07:02:18;;;;;;;;;;;;;;;17.37;48.69;102587.75;5113130;28;20101;-72
2023/05/14 07:04:43;;;;;;;;;;;;;;;17.29;48.83;102581.31;5114536;28;19950;-73
2023/05/14 07:07:12;;;;;;;;;;;;;;;17.32;49.73;102591.75;5117388;28;19916;-70
2023/05/14 07:09:37;;;;;;;;;;;;;;;17.46;49.85;102582.22;5116097;28;19931;-74
2023/05/14 07:12:21;;;;;;;;;;;;;;;17.52;47.78;102592.34;5115534;28;19912;-75
2023/05/14 07:14:52;;;;;;;;;;;;;;;17.47;48.01;102594.69;5099179;28;19964;-75
2023/05/14 07:17:18;;;;;;;;;;;;;;;17.56;48.77;102588.31;5080712;28;19912;-73
2023/05/14 07:19:43;;;;;;;;;;;;;;;17.63;48.67;102588.50;5113103;28;19918;-71
2023/05/14 07:22:08;;;;;;;;;;;;;;;17.65;47.28;102594.59;5094569;28;20458;-71
2023/05/14 07:24:34;;;;;;;;;;;;;;;17.58;47.45;102590.84;5112837;28;19916;-67
2023/05/14 07:27:00;;;;;;;;;;;;;;;17.46;48.69;102594.84;5113528;28;20347;-72
2023/05/14 07:29:26;;;;;;;;;;;;;;;17.45;48.89;102594.00;5116904;28;19912;-70
2023/05/14 07:31:51;;;;;;;;;;;;;;;17.49;47.97;102594.53;5115297;28;19919;-69
2023/05/14 07:34:16;;;;;;;;;;;;;;;17.53;48.49;102587.81;5116840;28;19911;-70
2023/05/14 07:36:42;;;;;;;;;;;;;;;17.68;49.03;102585.38;5116810;28;19919;-69
2023/05/14 07:39:07;;;;;;;;;;;;;;;17.74;47.57;102590.94;5116979;28;19926;-69
2023/05/14 07:41:32;;;;;;;;;;;;;;;17.78;48.09;102586.88;5116805;28;19912;-71
2023/05/14 07:43:58;;;;;;;;;;;;;;;17.86;47.98;102588.75;5114693;28;19918;-72
2023/05/14 07:46:24;;;;;;;;;;;;;;;17.84;47.25;102585.38;5096329;28;19943;-71
2023/05/14 07:48:50;;;;;;;;;;;;;;;17.77;46.57;102587.91;5096105;28;20314;-73
2023/05/14 07:51:15;;;;;;;;;;;;;;;17.74;47.30;102582.84;5095951;28;19916;-71
2023/05/14 07:53:40;;;;;;;;;;;;;;;17.70;47.17;102577.97;5096181;28;20406;-72
2023/05/14 07:56:06;;;;;;;;;;;;;;;17.59;47.94;102576.38;5102977;28;19982;-72
2023/05/14 07:58:31;;;;;;;;;;;;;;;17.52;48.29;102572.66;5116093;28;19916;-73
2023/05/14 08:00:57;;;;;;;;;;;;;;;17.43;48.46;102576.34;5115888;28;19912;-70
2023/05/14 08:03:22;;;;;;;;;;;;;;;17.35;48.31;102569.09;5115886;28;19922;-72
2023/05/14 08:05:47;;;;;;;;;;;;;;;17.33;48.55;102576.44;5115449;28;20017;-71
2023/05/14 08:08:12;;;;;;;;;;;;;;;17.30;47.91;102576.78;5115041;28;19927;-71
2023/05/14 08:10:38;;;;;;;;;;;;;;;17.38;46.96;102571.44;5115407;28;19918;-69
2023/05/14 08:13:03;;;;;;;;;;;;;;;17.54;46.91;102567.94;5115678;28;19930;-68
2023/05/14 08:15:29;;;;;;;;;;;;;;;17.76;46.10;102567.34;5115775;28;19924;-72
2023/05/14 08:17:54;;;;;;;;;;;;;;;17.97;45.24;102557.94;5115808;28;19911;-73
2023/05/14 08:20:20;;;;;;;;;;;;;;;18.17;44.38;102560.13;5116004;28;19912;-67
2023/05/14 08:22:45;;;;;;;;;;;;;;;18.41;44.38;102547.63;5115582;28;20010;-70
2023/05/14 08:25:13;;;;;;;;;;;;;;;18.64;44.56;102554.03;5115287;28;19960;-68
2023/05/14 08:27:38;;;;;;;;;;;;;;;18.78;43.47;102547.91;5115133;28;20302;-73
2023/05/14 08:30:05;;;;;;;;;;;;;;;18.88;43.64;102542.34;5114910;28;19915;-68
2023/05/14 08:32:30;;;;;;;;;;;;;;;18.98;43.68;102548.38;5115156;28;19926;-69
2023/05/14 08:34:55;;;;;;;;;;;;;;;18.93;42.43;102549.91;5117429;28;19911;-67
2023/05/14 08:37:21;;;;;;;;;;;;;;;18.72;42.47;102548.63;5096893;28;19964;-68
2023/05/14 08:39:46;;;;;;;;;;;;;;;18.53;42.16;102548.97;5113834;28;19956;-69
2023/05/14 08:42:12;;;;;;;;;;;;;;;18.45;42.06;102540.88;5115946;28;20382;-70
2023/05/14 08:44:41;;;;;;;;;;;;;;;18.44;40.99;102545.44;5115109;28;20264;-71
2023/05/14 08:47:07;;;;;;;;;;;;;;;18.60;41.29;102549.97;5114860;28;20375;-69
2023/05/14 08:49:33;;;;;;;;;;;;;;;18.68;41.06;102554.53;5114965;28;19922;-69
2023/05/14 08:51:58;;;;;;;;;;;;;;;18.72;39.57;102550.47;5114551;28;19916;-70
2023/05/14 08:54:25;;;;;;;;;;;;;;;18.84;40.83;102544.53;5114590;28;20325;-71
2023/05/14 08:56:51;;;;;;;;;;;;;;;19.00;41.64;102545.47;5114723;28;19918;-69
2023/05/14 08:59:17;;;;;;;;;;;;;;;19.16;40.77;102542.72;5097630;28;19915;-70
2023/05/14 09:01:45;;;;;;;;;;;;;;;19.33;40.22;102540.75;5116097;28;19944;-69
2023/05/14 09:04:11;;;;;;;;;;;;;;;19.61;40.39;102538.44;5115857;28;19920;-70
2023/05/14 09:06:38;;;;;;;;;;;;;;;19.77;38.24;102532.94;5115274;28;19931;-71
2023/05/14 09:09:03;;;;;;;;;;;;;;;19.69;38.24;102536.53;5115442;28;20402;-71
2023/05/14 09:11:29;;;;;;;;;;;;;;;19.72;37.87;102530.78;5115305;28;19937;-69
2023/05/14 09:13:54;;;;;;;;;;;;;;;19.79;39.04;102528.19;5115091;28;19998;-70
2023/05/14 09:16:20;;;;;;;;;;;;;;;19.84;38.34;102528.47;5114621;28;20007;-71
2023/05/14 09:18:46;;;;;;;;;;;;;;;19.92;36.84;102523.00;5114284;28;19957;-72
2023/05/14 09:21:12;;;;;;;;;;;;;;;19.83;37.32;102521.38;5114329;28;20375;-73
2023/05/14 09:23:40;;;;;;;;;;;;;;;19.60;37.55;102520.53;5116487;28;19979;-72
2023/05/14 09:26:06;;;;;;;;;;;;;;;19.35;38.38;102522.53;5104568;28;19915;-71
2023/05/14 09:28:38;;;;;;;;;;;;;;;19.31;38.18;102521.19;5116953;28;19912;-71
2023/05/14 09:31:03;;;;;;;;;;;;;;;19.31;38.86;102521.19;5119350;28;20035;-69
2023/05/14 09:33:29;;;;;;;;;;;;;;;19.27;38.67;102514.47;5095485;28;19963;-71
2023/05/14 09:35:58;;;;;;;;;;;;;;;19.19;37.94;102512.66;5098347;28;19934;-70
2023/05/14 09:38:28;;;;;;;;;;;;;;;19.16;38.35;102508.47;5115125;27;19920;-68
2023/05/14 09:40:53;;;;;;;;;;;;;;;19.25;39.35;102505.72;5117183;28;19912;-71
2023/05/14 09:43:18;;;;;;;;;;;;;;;19.32;36.80;102504.81;5114659;28;20409;-71
2023/05/14 09:45:44;;;;;;;;;;;;;;;19.38;36.82;102501.41;5114777;28;20355;-70
2023/05/14 09:48:09;;;;;;;;;;;;;;;19.41;37.23;102497.53;5114848;28;19923;-68
2023/05/14 09:50:40;;;;;;;;;;;;;;;19.38;36.97;102493.31;5116114;28;20391;-72
2023/05/14 09:53:06;;;;;;;;;;;;;;;19.33;37.39;102492.97;5115421;28;19918;-71
2023/05/14 09:55:32;;;;;;;;;;;;;;;19.24;35.38;102488.66;5114289;28;20009;-69
2023/05/14 09:57:57;;;;;;;;;;;;;;;19.31;36.23;102489.63;5114090;28;20351;-72
2023/05/14 10:00:23;;;;;;;;;;;;;;;19.52;35.87;102491.69;5113589;28;19924;-72
2023/05/14 10:02:50;;;;;;;;;;;;;;;19.76;35.26;102488.00;5114086;28;20443;-69
2023/05/14 10:05:15;;;;;;;;;;;;;;;19.91;33.85;102486.16;5114536;28;19912;-70
2023/05/14 10:07:48;;;;;;;;;;;;;;;20.02;33.88;102483.03;5096001;28;20377;-73
2023/05/14 10:10:20;;;;;;;;;;;;;;;20.05;33.08;102477.25;5113319;28;19912;-69
2023/05/14 10:12:50;;;;;;;;;;;;;;;20.20;34.63;102473.72;5114089;28;19916;-71
2023/05/14 10:15:18;;;;;;;;;;;;;;;20.17;33.63;102469.53;5113897;28;19957;-70
2023/05/14 10:17:47;;;;;;;;;;;;;;;20.10;33.66;102468.59;5114063;28;19951;-70
2023/05/14 10:20:14;;;;;;;;;;;;;;;20.10;34.86;102469.44;5113788;28;19957;-71
2023/05/14 10:22:40;;;;;;;;;;;;;;;20.14;35.17;102474.47;5113466;28;19976;-70
2023/05/14 10:25:05;;;;;;;;;;;;;;;20.06;34.22;102460.00;5113796;28;20446;-68
2023/05/14 10:27:31;;;;;;;;;;;;;;;20.00;34.07;102458.03;5113669;28;20435;-72
2023/05/14 10:29:56;;;;;;;;;;;;;;;20.05;34.62;102461.03;5095436;28;19934;-69
2023/05/14 10:32:24;;;;;;;;;;;;;;;20.21;34.91;102456.47;5113410;28;19912;-70
2023/05/14 10:34:50;;;;;;;;;;;;;;;20.39;34.30;102454.25;5115080;28;19916;-73
2023/05/14 10:37:25;;;;;;;;;;;;;;;20.39;33.83;102444.28;5114303;28;20002;-74
2023/05/14 10:40:05;;;;;;;;;;;;;;;20.50;33.96;102442.97;5112593;28;19911;-74
2023/05/14 10:42:44;;;;;;;;;;;;;;;20.66;33.73;102445.50;5093545;28;19919;-74
2023/05/14 10:45:13;;;;;;;;;;;;;;;20.86;33.38;102436.81;5114883;28;20153;-70
2023/05/14 10:47:40;;;;;;;;;;;;;;;21.08;33.26;102424.94;5113654;28;20321;-72
2023/05/14 10:50:07;;;;;;;;;;;;;;;21.29;32.51;102426.88;5075908;28;19916;-71
2023/05/14 10:52:33;;;;;;;;;;;;;;;21.55;33.04;102420.88;5072844;28;19932;-71
2023/05/14 10:55:00;;;;;;;;;;;;;;;21.78;32.47;102415.22;5072928;28;19912;-70
2023/05/14 10:57:29;;;;;;;;;;;;;;;22.00;32.96;102414.16;5072409;28;19919;-72
2023/05/14 10:59:58;;;;;;;;;;;;;;;22.16;31.41;102413.03;5072562;28;19920;-72
2023/05/14 11:02:25;;;;;;;;;;;;;;;22.30;31.54;102413.97;5071964;28;19912;-73
2023/05/14 11:04:57;;;;;;;;;;;;;;;22.42;31.53;102415.91;5072575;28;19963;-69
2023/05/14 11:07:24;;;;;;;;;;;;;;;22.32;31.40;102411.88;5072694;28;19922;-72
2023/05/14 11:09:49;;;;;;;;;;;;;;;22.19;31.59;102405.31;5054488;28;20023;-73
2023/05/14 11:12:16;;;;;;;;;;;;;;;22.01;32.13;102404.97;5054528;28;20076;-71
2023/05/14 11:14:41;;;;;;;;;;;;;;;21.98;31.94;102409.97;5037836;28;19912;-73
2023/05/14 11:17:07;;;;;;;;;;;;;;;21.96;32.64;102408.25;5072276;28;19920;-72
2023/05/14 11:19:32;;;;;;;;;;;;;;;22.04;33.25;102406.50;5054147;28;19913;-73
2023/05/14 11:22:00;;;;;;;;;;;;;;;22.10;31.91;102405.69;5074194;28;19913;-73
2023/05/14 11:24:25;;;;;;;;;;;;;;;22.00;32.02;102402.47;5073177;28;20022;-71
2023/05/14 11:26:51;;;;;;;;;;;;;;;21.78;31.81;102393.53;5070064;28;20391;-74
2023/05/14 11:29:16;;;;;;;;;;;;;;;21.71;32.70;102398.09;5071807;28;19916;-72
2023/05/14 11:31:42;;;;;;;;;;;;;;;21.81;32.44;102393.97;5072089;28;19912;-72
2023/05/14 11:34:08;;;;;;;;;;;;;;;21.79;33.03;102390.63;5071692;28;19920;-75
2023/05/14 11:36:35;;;;;;;;;;;;;;;21.56;32.53;102392.72;5071976;28;19913;-75
2023/05/14 11:39:01;;;;;;;;;;;;;;;21.13;32.86;102389.19;5071911;28;20019;-73
2023/05/14 11:41:30;;;;;;;;;;;;;;;21.02;33.56;102394.06;5053331;28;19967;-71
2023/05/14 11:43:56;;;;;;;;;;;;;;;21.20;33.95;102396.34;5071159;28;19919;-75
2023/05/14 11:46:23;;;;;;;;;;;;;;;21.55;34.06;102382.91;5071494;28;19917;-73
2023/05/14 11:48:48;;;;;;;;;;;;;;;21.79;33.84;102390.63;5052677;28;20372;-75
2023/05/14 11:51:14;;;;;;;;;;;;;;;21.85;34.26;102384.41;5090865;28;19923;-74
2023/05/14 11:53:41;;;;;;;;;;;;;;;21.85;34.54;102389.00;5055619;28;20011;-75
2023/05/14 11:56:06;;;;;;;;;;;;;;;21.84;34.30;102388.16;5083830;28;20426;-73
2023/05/14 11:58:32;;;;;;;;;;;;;;;21.95;34.23;102384.88;5086553;28;19912;-76
2023/05/14 12:00:58;;;;;;;;;;;;;;;22.00;34.21;102380.75;5056431;28;19924;-73
2023/05/14 12:03:25;;;;;;;;;;;;;;;21.73;34.01;102386.00;5091257;28;19920;-72
2023/05/14 12:06:00;;;;;;;;;;;;;;;21.43;34.05;102379.91;5090192;28;19945;-74
2023/05/14 12:08:30;;;;;;;;;;;;;;;21.39;35.05;102372.34;5091970;28;19954;-71
2023/05/14 12:10:57;;;;;;;;;;;;;;;21.55;35.40;102372.06;5094126;28;20045;-70
2023/05/14 12:13:25;;;;;;;;;;;;;;;21.61;35.54;102374.00;5094113;28;19912;-71
2023/05/14 12:15:55;;;;;;;;;;;;;;;21.70;34.54;102375.56;5095507;28;19920;-74
2023/05/14 12:18:21;;;;;;;;;;;;;;;21.78;33.99;102375.41;5095917;28;19916;-72
2023/05/14 12:20:46;;;;;;;;;;;;;;;21.63;34.03;102372.75;5094704;28;19935;-74
2023/05/14 12:23:12;;;;;;;;;;;;;;;21.44;34.30;102369.91;5095617;28;20394;-71
2023/05/14 12:25:38;;;;;;;;;;;;;;;21.24;34.20;102373.28;5095643;28;20021;-70
2023/05/14 12:28:22;;;;;;;;;;;;;;;21.16;34.87;102367.97;5095248;28;19916;-73
2023/05/14 12:30:47;;;;;;;;;;;;;;;21.19;34.66;102356.72;5095412;28;19912;-72